Portada
METAR-TAF:

METAR-TAF

Aeroports :

Marham, Anglaterra

latitud: 52-39N, longitud: 000-34E, altitud: 23 m

Observació

L'informe es va fer fa 19 minuts, a les 10:20 UTC
Vent 4 kt del Nord-Est
Temperatura 18°C
Humitat 49%
Pressió 1026 hPa
Visibilitat 10 km o més
sense núvols per sota de 1500 mi sense presència de cumulonimbus.

METAR: EGYM 091020Z 04004KT CAVOK 18/07 Q1026 NOSIG RMK BLU BLU

Hora: 11:39 (10:39 UTC)

Pronòstic

L'informe es va fer fa 2 hores i 24 minuts, a les 08:15 UTC
Pronòstic vàlid del 09 a les 09 UTC al 09 a les 18 UTC
Vent 5 kt del Nord/Nord-Est
Visibilitat 10 km o més
Escasses núvols a una alçada de 4000 ft
Núvols disperses a una alçada de 9000 ft
Evolucionant progressivament
l' 09 a les 13 UTC al 09 a les 15 UTC
Vent 5 kt del Est

TAF: EGYM 090815Z 0909/0918 03005KT 9999 FEW040 SCT090 BECMG 0913/0915 09005KT

Observacions i pronòstics meteorològics de més de 4000 aeroports (METAR i TAF).

Les estacions disponibles són els punts grocs i vermells al mapa.

Posi el ratolí al punt desitjat per veure el nom de l'estació.

Feu clic per veure les observacions i els pronòstics meteorològics.

Per canviar el mapa: feu clic els botons verds amb una creu de color negre per apropar; al botó verd amb un guió per allunyar la imatge; o en les fletxes verdes per a mapes adjacents.


METAR-TAF: